Time;durP1;ratioP1;P1;durP2;ratioP2;P2;SDS_P1;SDS_P2;PMS_P1;PMS_P2;Temp;Humidity;BMP_temperature;BMP_pressure;BME280_temperature;BME280_humidity;BME280_pressure;Samples;Min_cycle;Max_cycle;Signal;HPM_P1;HPM_P2
2022/11/12 00:02:34;;;;;;;23.67;10.80;;;;;;;5.60;100.00;101277.55;1641897;87;21095;-73
2022/11/12 00:05:20;;;;;;;27.47;11.97;;;;;;;5.64;100.00;101292.95;1642026;87;21516;-72
2022/11/12 00:08:05;;;;;;;29.63;12.50;;;;;;;5.67;100.00;101296.27;1642463;87;21019;-73
2022/11/12 00:10:50;;;;;;;29.20;12.23;;;;;;;5.71;100.00;101298.25;1642365;87;21058;-73
2022/11/12 00:13:36;;;;;;;28.17;11.87;;;;;;;5.73;100.00;101303.52;1643461;87;21050;-73
2022/11/12 00:16:22;;;;;;;29.67;11.83;;;;;;;5.76;100.00;101307.33;1643975;87;21089;-73
2022/11/12 00:19:07;;;;;;;29.00;12.40;;;;;;;5.79;100.00;101309.77;1643095;87;21058;-73
2022/11/12 00:21:51;;;;;;;30.10;12.10;;;;;;;5.82;100.00;101308.22;1725526;82;21023;-72
2022/11/12 00:24:37;;;;;;;27.00;12.00;;;;;;;5.83;100.00;101313.48;1725331;83;21023;-73
2022/11/12 00:27:21;;;;;;;34.30;12.77;;;;;;;5.84;100.00;101315.22;1725456;83;21100;-73
2022/11/12 00:30:08;;;;;;;30.90;12.33;;;;;;;5.86;100.00;101313.73;1725356;83;21018;-73
2022/11/12 00:32:54;;;;;;;30.40;12.53;;;;;;;5.88;100.00;101309.14;1725424;83;20987;-72
2022/11/12 00:35:40;;;;;;;31.90;12.87;;;;;;;5.88;100.00;101304.62;1725306;83;21031;-73
2022/11/12 00:38:26;;;;;;;33.00;12.77;;;;;;;5.87;100.00;101301.55;1725644;83;21035;-72
2022/11/12 00:41:11;;;;;;;29.03;12.70;;;;;;;5.89;100.00;101304.97;1725309;83;21125;-72
2022/11/12 00:43:57;;;;;;;29.93;12.77;;;;;;;5.90;100.00;101300.48;1725496;83;21513;-72
2022/11/12 00:46:44;;;;;;;32.97;13.13;;;;;;;5.87;100.00;101298.86;1725634;83;21026;-72
2022/11/12 00:49:29;;;;;;;35.37;13.83;;;;;;;5.85;100.00;101294.59;1725579;82;21042;-71
2022/11/12 00:52:15;;;;;;;27.20;11.37;;;;;;;5.82;100.00;101284.06;1725655;83;21046;-72
2022/11/12 00:55:00;;;;;;;32.03;12.90;;;;;;;5.79;100.00;101280.25;1725846;83;21018;-73
2022/11/12 00:57:46;;;;;;;28.57;11.33;;;;;;;5.79;100.00;101285.61;1725574;83;21007;-73
2022/11/12 01:00:32;;;;;;;29.47;11.77;;;;;;;5.78;100.00;101284.77;1723352;83;21030;-73
2022/11/12 01:03:17;;;;;;;27.63;11.77;;;;;;;5.79;100.00;101289.18;1721851;83;21038;-72
2022/11/12 01:06:06;;;;;;;31.30;12.73;;;;;;;5.77;100.00;101289.78;1721929;83;21464;-73
2022/11/12 01:08:53;;;;;;;27.27;12.43;;;;;;;5.77;100.00;101283.53;1721802;83;21052;-71
2022/11/12 01:11:40;;;;;;;30.40;12.80;;;;;;;5.75;100.00;101280.09;1721933;83;21061;-71
2022/11/12 01:14:25;;;;;;;28.63;12.27;;;;;;;5.73;100.00;101268.63;1721834;83;21014;-72
2022/11/12 01:17:10;;;;;;;26.70;11.13;;;;;;;5.68;100.00;101263.57;1721830;83;21011;-73
2022/11/12 01:19:58;;;;;;;29.97;12.70;;;;;;;5.65;100.00;101263.81;1721789;83;21554;-73
2022/11/12 01:22:43;;;;;;;26.97;11.23;;;;;;;5.65;100.00;101263.32;1756114;81;21070;-73
2022/11/12 01:25:29;;;;;;;28.80;12.20;;;;;;;5.64;100.00;101255.38;1761059;81;21046;-73
2022/11/12 01:28:14;;;;;;;29.87;11.17;;;;;;;5.61;100.00;101256.47;1761000;81;21026;-70
2022/11/12 01:31:16;;;;;;;27.40;11.50;;;;;;;5.59;100.00;101253.01;1761041;81;21047;-73
2022/11/12 01:34:03;;;;;;;31.43;12.83;;;;;;;5.58;100.00;101263.38;1761279;81;21007;-72
2022/11/12 01:36:49;;;;;;;30.07;11.53;;;;;;;5.57;100.00;101259.46;1760949;81;21018;-73
2022/11/12 01:39:34;;;;;;;27.67;12.20;;;;;;;5.55;100.00;101264.09;1761251;81;21010;-73
2022/11/12 01:42:19;;;;;;;30.93;12.77;;;;;;;5.53;100.00;101264.69;1761019;81;21038;-73
2022/11/12 01:45:14;;;;;;;30.30;11.67;;;;;;;5.51;100.00;101264.30;1761071;81;21021;-73
2022/11/12 01:48:00;;;;;;;27.00;11.83;;;;;;;5.49;100.00;101272.94;1760908;81;21030;-73
2022/11/12 01:50:45;;;;;;;27.83;12.83;;;;;;;5.48;100.00;101271.70;1761148;81;21049;-73
2022/11/12 01:53:35;;;;;;;27.43;12.27;;;;;;;5.46;100.00;101275.83;1760988;81;21105;-73
2022/11/12 01:56:21;;;;;;;27.80;11.67;;;;;;;5.44;100.00;101266.19;1761166;81;21532;-72
2022/11/12 01:59:20;;;;;;;30.13;13.33;;;;;;;5.42;100.00;101267.63;1759058;81;21018;-72
2022/11/12 02:02:07;;;;;;;34.90;13.97;;;;;;;5.39;100.00;101263.81;1731103;83;21010;-72
2022/11/12 02:04:52;;;;;;;32.27;14.73;;;;;;;5.37;100.00;101267.59;1730824;83;21516;-74
2022/11/12 02:07:40;;;;;;;35.47;13.50;;;;;;;5.33;100.00;101293.27;1731103;83;21022;-73
2022/11/12 02:10:25;;;;;;;37.07;13.90;;;;;;;5.32;100.00;101302.77;1705169;83;21086;-72
2022/11/12 02:16:14;;;;;;;37.23;15.15;;;;;;;5.31;100.00;101316.66;1732250;81;21042;-72
2022/11/12 02:19:02;;;;;;;32.93;12.73;;;;;;;5.28;100.00;101320.89;1731808;83;20994;-72
2022/11/12 02:21:47;;;;;;;31.00;12.20;;;;;;;5.28;100.00;101332.95;1730992;82;21034;-72
2022/11/12 02:24:34;;;;;;;27.23;11.97;;;;;;;5.30;100.00;101345.78;1731170;83;21037;-73
2022/11/12 02:27:21;;;;;;;28.50;11.03;;;;;;;5.31;100.00;101351.98;1731070;82;21066;-71
2022/11/12 02:30:07;;;;;;;37.77;13.43;;;;;;;5.33;100.00;101356.30;1731234;83;21030;-74
2022/11/12 02:32:52;;;;;;;29.43;12.30;;;;;;;5.35;100.00;101362.02;1731216;83;21133;-74
2022/11/12 02:35:37;;;;;;;37.50;13.87;;;;;;;5.36;100.00;101376.67;1731410;81;21062;-73
2022/11/12 02:38:22;;;;;;;28.03;11.50;;;;;;;5.36;100.00;101379.85;1731104;83;21057;-73
2022/11/12 02:41:07;;;;;;;31.67;12.37;;;;;;;5.40;100.00;101388.05;1731539;83;21053;-72
2022/11/12 02:43:52;;;;;;;30.33;11.07;;;;;;;5.41;100.00;101400.52;1731057;83;21054;-72
2022/11/12 02:46:38;;;;;;;34.37;12.40;;;;;;;5.42;100.00;101403.10;1731334;83;21037;-73
2022/11/12 02:49:24;;;;;;;34.23;11.93;;;;;;;5.43;100.00;101406.63;1730944;81;21098;-72
2022/11/12 02:52:09;;;;;;;36.67;11.60;;;;;;;5.43;100.00;101406.63;1731387;83;21475;-72
2022/11/12 02:54:54;;;;;;;37.13;12.90;;;;;;;5.43;100.00;101424.07;1731033;83;21022;-71
2022/11/12 02:57:39;;;;;;;31.40;11.20;;;;;;;5.43;100.00;101424.07;1731291;83;21034;-72
2022/11/12 03:00:25;;;;;;;27.77;11.07;;;;;;;5.44;100.00;101435.19;1731008;83;20990;-72
2022/11/12 03:03:10;;;;;;;32.47;11.43;;;;;;;5.45;100.00;101447.16;1731255;83;21026;-72
2022/11/12 03:05:58;;;;;;;32.37;11.37;;;;;;;5.47;100.00;101445.69;1731013;81;21493;-72
2022/11/12 03:08:44;;;;;;;30.07;10.53;;;;;;;5.49;100.00;101453.19;1731184;83;21500;-72
2022/11/12 03:11:30;;;;;;;30.40;11.70;;;;;;;5.52;100.00;101455.64;1730854;83;21038;-72
2022/11/12 03:14:16;;;;;;;34.07;11.50;;;;;;;5.54;100.00;101451.02;1731286;83;21082;-72
2022/11/12 03:17:02;;;;;;;29.97;10.90;;;;;;;5.54;100.00;101456.39;1731005;83;21113;-71
2022/11/12 03:19:48;;;;;;;30.07;10.70;;;;;;;5.56;100.00;101467.02;1731186;83;21484;-73
2022/11/12 03:22:35;;;;;;;32.67;11.50;;;;;;;5.55;100.00;101459.46;1730900;83;21077;-73
2022/11/12 03:25:22;;;;;;;32.73;11.37;;;;;;;5.58;100.00;101473.14;1731405;83;21029;-71
2022/11/12 03:28:10;;;;;;;30.93;10.80;;;;;;;5.57;100.00;101478.99;1731094;83;21548;-73
2022/11/12 03:30:59;;;;;;;34.10;11.50;;;;;;;5.56;100.00;101474.61;1731093;83;21050;-71
2022/11/12 03:33:45;;;;;;;28.57;9.77;;;;;;;5.56;100.00;101473.27;1730953;83;21030;-72
2022/11/12 03:36:30;;;;;;;31.87;11.47;;;;;;;5.57;100.00;101477.66;1731092;83;20970;-71
2022/11/12 03:39:17;;;;;;;27.60;10.27;;;;;;;5.56;100.00;101473.27;1731008;83;21516;-74
2022/11/12 03:42:05;;;;;;;29.53;10.43;;;;;;;5.57;100.00;101481.67;1730965;81;21516;-72
2022/11/12 03:44:50;;;;;;;29.90;10.30;;;;;;;5.58;100.00;101479.84;1731007;83;21477;-73
2022/11/12 03:47:35;;;;;;;31.13;10.03;;;;;;;5.59;100.00;101482.92;1731182;81;21022;-73
2022/11/12 03:50:24;;;;;;;32.70;9.83;;;;;;;5.61;100.00;101492.61;1731157;83;21022;-73
2022/11/12 03:53:09;;;;;;;32.20;9.87;;;;;;;5.64;100.00;101498.23;1731427;81;21034;-73
2022/11/12 03:55:54;;;;;;;30.57;10.13;;;;;;;5.65;100.00;101498.13;1731375;83;21041;-71
2022/11/12 03:58:41;;;;;;;33.77;10.80;;;;;;;5.67;100.00;101498.88;1731443;83;20995;-72
2022/11/12 04:01:27;;;;;;;30.10;9.90;;;;;;;5.68;100.00;101501.95;1731519;83;21042;-72
2022/11/12 04:04:13;;;;;;;28.00;9.60;;;;;;;5.69;100.00;101507.69;1731929;83;21009;-73
2022/11/12 04:10:04;;;;;;;28.83;9.83;;;;;;;5.70;100.00;101512.11;1732822;81;21014;-72
2022/11/12 04:22:17;;;;;;;30.03;10.60;;;;;;;5.75;100.00;101510.43;1744929;82;21074;-70
2022/11/12 04:28:07;;;;;;;26.13;9.60;;;;;;;5.69;100.00;101514.89;1725531;82;21516;-72
2022/11/12 04:30:53;;;;;;;28.47;9.80;;;;;;;5.66;100.00;101510.57;1725357;82;21062;-72
2022/11/12 04:33:38;;;;;;;25.53;8.77;;;;;;;5.67;100.00;101514.98;1725680;83;21026;-71
2022/11/12 04:36:25;;;;;;;29.37;9.63;;;;;;;5.69;100.00;101508.18;1725533;82;21031;-72
2022/11/12 04:39:11;;;;;;;30.10;9.50;;;;;;;5.69;100.00;101517.57;1725499;83;21528;-70
2022/11/12 04:45:05;;;;;;;23.83;8.60;;;;;;;5.67;100.00;101520.84;1725588;83;21078;-72
2022/11/12 04:47:52;;;;;;;27.40;8.80;;;;;;;5.66;100.00;101526.67;1692698;85;21045;-73
2022/11/12 04:50:40;;;;;;;24.37;8.63;;;;;;;5.65;100.00;101528.14;1692824;85;21085;-72
2022/11/12 04:53:27;;;;;;;27.93;8.37;;;;;;;5.65;100.00;101534.36;1657612;85;21032;-71
2022/11/12 04:56:13;;;;;;;26.33;8.50;;;;;;;5.66;100.00;101540.58;1657378;87;21112;-73
2022/11/12 04:58:59;;;;;;;32.80;12.75;;;;;;;5.62;100.00;101543.95;1643371;87;28468;-72
2022/11/12 05:01:44;;;;;;;29.83;10.07;;;;;;;5.64;100.00;101554.59;1657356;87;21047;-72
2022/11/12 05:04:30;;;;;;;27.37;9.27;;;;;;;5.70;100.00;101552.36;1657328;87;21061;-72
2022/11/12 05:07:15;;;;;;;28.40;10.40;;;;;;;5.70;100.00;101551.02;1657279;87;21099;-72
2022/11/12 05:10:00;;;;;;;29.77;10.30;;;;;;;5.68;100.00;101572.20;1657591;87;21548;-72
2022/11/12 05:12:47;;;;;;;28.80;9.43;;;;;;;5.68;100.00;101573.53;1657226;87;21059;-73
2022/11/12 05:15:33;;;;;;;26.30;9.43;;;;;;;5.68;100.00;101576.22;1657558;87;21051;-73
2022/11/12 05:18:18;;;;;;;29.53;10.67;;;;;;;5.68;100.00;101577.11;1678148;85;21037;-72
2022/11/12 05:22:04;;;;;;;29.10;10.13;;;;;;;5.71;100.00;101592.13;1692491;85;21089;-74
2022/11/12 05:23:52;;;;;;;28.10;9.53;;;;;;;5.71;100.00;101589.45;1688451;84;21136;-72
2022/11/12 05:26:38;;;;;;;33.50;11.73;;;;;;;5.71;100.00;101595.66;1687814;84;21599;-72
2022/11/12 05:29:24;;;;;;;33.27;10.87;;;;;;;5.70;100.00;101597.98;1687847;84;21570;-72
2022/11/12 05:32:14;;;;;;;28.47;10.80;;;;;;;5.71;100.00;101592.98;1687851;85;21037;-74
2022/11/12 05:35:00;;;;;;;30.77;9.97;;;;;;;5.74;100.00;101599.11;1688099;85;21026;-72
2022/11/12 05:37:46;;;;;;;28.80;10.30;;;;;;;5.76;100.00;101606.59;1687996;85;21002;-73
2022/11/12 05:40:33;;;;;;;27.03;9.70;;;;;;;5.78;100.00;101608.70;1688032;85;21070;-73
2022/11/12 05:43:17;;;;;;;26.93;9.40;;;;;;;5.81;100.00;101616.06;1689687;83;21539;-73
2022/11/12 05:46:03;;;;;;;26.80;9.87;;;;;;;5.85;100.00;101619.41;1733132;83;21009;-74
2022/11/12 05:48:48;;;;;;;23.80;8.83;;;;;;;5.88;100.00;101610.66;1732987;83;21152;-73
2022/11/12 05:51:33;;;;;;;22.70;8.17;;;;;;;5.94;100.00;101612.56;1733218;83;21514;-72
2022/11/12 05:54:17;;;;;;;23.87;9.03;;;;;;;5.96;100.00;101610.17;1733038;83;21006;-73
2022/11/12 05:57:03;;;;;;;22.00;8.03;;;;;;;5.97;100.00;101606.54;1733113;83;21500;-72
2022/11/12 05:59:48;;;;;;;24.00;8.83;;;;;;;5.98;100.00;101606.90;1733203;82;21041;-73
2022/11/12 06:02:33;;;;;;;22.90;8.97;;;;;;;6.02;100.00;101614.27;1733453;83;21029;-73
2022/11/12 06:05:19;;;;;;;25.33;9.47;;;;;;;6.05;100.00;101619.44;1733247;83;21073;-72
2022/11/12 06:08:04;;;;;;;23.27;9.17;;;;;;;6.11;100.00;101623.53;1733679;83;21001;-73
2022/11/12 06:10:52;;;;;;;22.67;8.23;;;;;;;6.15;100.00;101635.32;1733995;83;21029;-73
2022/11/12 06:13:36;;;;;;;23.87;8.53;;;;;;;6.16;100.00;101630.34;1705706;84;21009;-74
2022/11/12 06:16:22;;;;;;;22.10;8.83;;;;;;;6.19;100.00;101634.14;1704505;84;21091;-73
2022/11/12 06:19:07;;;;;;;26.50;9.57;;;;;;;6.22;100.00;101637.12;1704331;84;21025;-74
2022/11/12 06:21:53;;;;;;;20.43;7.80;;;;;;;6.29;100.00;101651.85;1674883;86;21083;-73
2022/11/12 06:24:39;;;;;;;24.50;8.63;;;;;;;6.34;100.00;101644.80;1711419;84;21060;-74
2022/11/12 06:27:24;;;;;;;23.23;8.47;;;;;;;6.41;100.00;101640.27;1703389;84;21084;-74
2022/11/12 06:30:10;;;;;;;24.10;7.90;;;;;;;6.48;100.00;101634.46;1703614;84;21080;-73
2022/11/12 06:32:55;;;;;;;21.23;8.50;;;;;;;6.52;100.00;101628.78;1704175;84;21553;-73
2022/11/12 06:35:41;;;;;;;25.30;9.80;;;;;;;6.54;100.00;101634.05;1704481;84;21056;-74
2022/11/12 06:38:26;;;;;;;26.67;9.37;;;;;;;6.56;100.00;101632.97;1704230;84;21073;-75
2022/11/12 06:41:13;;;;;;;23.17;8.70;;;;;;;6.56;100.00;101630.28;1704528;84;21518;-75
2022/11/12 06:43:59;;;;;;;26.20;9.57;;;;;;;6.59;100.00;101631.91;1687756;84;21026;-73
2022/11/12 06:46:45;;;;;;;25.97;9.80;;;;;;;6.62;100.00;101628.98;1699802;84;21054;-74
2022/11/12 06:49:33;;;;;;;23.90;9.60;;;;;;;6.62;100.00;101632.56;1737369;82;21004;-73
2022/11/12 06:52:18;;;;;;;23.23;9.33;;;;;;;6.62;100.00;101627.64;1741191;82;21025;-75
2022/11/12 06:55:04;;;;;;;23.13;9.73;;;;;;;6.68;100.00;101612.95;1703246;83;21095;-75
2022/11/12 06:57:52;;;;;;;21.10;8.37;;;;;;;6.77;100.00;101615.83;1703780;84;21018;-72
2022/11/12 07:00:37;;;;;;;22.80;8.60;;;;;;;6.84;100.00;101614.43;1702912;83;21094;-77
2022/11/12 07:03:23;;;;;;;19.80;7.40;;;;;;;6.86;100.00;101614.33;1741637;82;21028;-75
2022/11/12 07:06:11;;;;;;;20.87;7.90;;;;;;;6.89;100.00;101610.08;1703075;84;21042;-74
2022/11/12 07:08:58;;;;;;;22.93;8.57;;;;;;;6.92;100.00;101600.92;1740992;82;21545;-76
2022/11/12 07:11:52;;;;;;;21.43;7.97;;;;;;;6.94;100.00;101601.20;1740581;82;21485;-74
2022/11/12 07:14:39;;;;;;;20.13;7.27;;;;;;;6.98;100.00;101599.16;1682165;85;21081;-74
2022/11/12 07:17:26;;;;;;;21.20;7.60;;;;;;;7.01;100.00;101588.16;1682536;85;21037;-73
2022/11/12 07:20:12;;;;;;;21.57;8.40;;;;;;;7.07;100.00;101593.11;1673949;84;21045;-72
2022/11/12 07:23:00;;;;;;;20.20;7.40;;;;;;;7.15;100.00;101593.43;1681304;85;21014;-73
2022/11/12 07:25:45;;;;;;;18.63;7.27;;;;;;;7.24;100.00;101582.45;1637556;86;21023;-73
2022/11/12 07:28:30;;;;;;;20.87;7.87;;;;;;;7.26;100.00;101584.58;1646833;85;21161;-75
2022/11/12 07:31:16;;;;;;;17.73;6.57;;;;;;;7.24;100.00;101589.19;1650215;87;21037;-74
2022/11/12 07:34:02;;;;;;;19.27;7.73;;;;;;;7.29;100.00;101587.52;1649731;86;21136;-75
2022/11/12 07:36:50;;;;;;;17.57;7.30;;;;;;;7.30;100.00;101584.72;1650173;87;21173;-73
2022/11/12 07:39:34;;;;;;;20.90;8.47;;;;;;;7.21;100.00;101577.33;1649934;86;21100;-75
2022/11/12 07:42:19;;;;;;;21.70;8.07;;;;;;;7.23;100.00;101576.72;1650301;87;21033;-75
2022/11/12 07:45:05;;;;;;;20.20;7.40;;;;;;;7.30;100.00;101578.48;1649586;87;21102;-74
2022/11/12 07:47:51;;;;;;;19.40;7.80;;;;;;;7.35;100.00;101575.83;1650260;87;21021;-73
2022/11/12 07:50:37;;;;;;;16.80;7.17;;;;;;;7.43;100.00;101575.25;1652661;84;21009;-74
2022/11/12 07:53:22;;;;;;;21.73;8.13;;;;;;;7.51;100.00;101586.32;1704105;84;21599;-74
2022/11/12 07:56:17;;;;;;;23.93;9.07;;;;;;;7.53;100.00;101584.86;1703594;84;21053;-72
2022/11/12 07:59:03;;;;;;;20.17;9.10;;;;;;;7.54;100.00;101582.06;1704321;84;21246;-74
2022/11/12 08:01:47;;;;;;;19.10;7.50;;;;;;;7.57;100.00;101579.62;1735248;82;21078;-71
2022/11/12 08:04:33;;;;;;;18.10;7.10;;;;;;;7.54;100.00;101578.02;1734917;83;21072;-71
2022/11/12 08:07:18;;;;;;;18.63;7.30;;;;;;;7.51;100.00;101568.83;1733762;83;21068;-76
2022/11/12 08:10:06;;;;;;;20.47;8.07;;;;;;;7.48;100.00;101562.81;1733461;83;21034;-75
2022/11/12 08:12:55;;;;;;;18.67;7.87;;;;;;;7.45;100.00;101559.84;1733742;83;21358;-74
2022/11/12 08:15:42;;;;;;;21.27;8.80;;;;;;;7.45;100.00;101558.50;1733397;83;21049;-79
2022/11/12 08:18:28;;;;;;;16.90;7.77;;;;;;;7.46;100.00;101549.95;1733587;83;21045;-74
2022/11/12 08:21:15;;;;;;;17.53;7.87;;;;;;;7.41;100.00;101540.38;1732946;82;21074;-76
2022/11/12 08:24:00;;;;;;;16.33;6.90;;;;;;;7.42;100.00;101547.98;1729179;82;21027;-73
2022/11/12 08:26:46;;;;;;;19.53;7.90;;;;;;;7.40;100.00;101547.20;1691129;85;21006;-75
2022/11/12 08:29:32;;;;;;;18.37;8.03;;;;;;;7.38;100.00;101550.50;1693316;85;21041;-73
2022/11/12 08:32:17;;;;;;;17.87;6.90;;;;;;;7.39;100.00;101552.23;1693206;85;20980;-75
2022/11/12 08:35:02;;;;;;;18.30;7.77;;;;;;;7.47;100.00;101552.54;1693337;84;21045;-73
2022/11/12 08:37:47;;;;;;;21.27;9.40;;;;;;;7.54;100.00;101541.69;1693692;85;21002;-76
2022/11/12 08:40:33;;;;;;;14.27;6.93;;;;;;;7.65;100.00;101544.92;1693994;85;21092;-75
2022/11/12 08:43:18;;;;;;;16.27;6.87;;;;;;;7.72;100.00;101550.67;1693480;85;20994;-76
2022/11/12 08:46:07;;;;;;;13.47;6.47;;;;;;;7.78;100.00;101543.50;1688414;85;21026;-73
2022/11/12 08:48:53;;;;;;;18.97;9.00;;;;;;;7.82;100.00;101538.23;1693371;85;21057;-74
2022/11/12 08:51:38;;;;;;;17.47;8.13;;;;;;;7.91;100.00;101529.45;1693222;85;21042;-75
2022/11/12 08:54:23;;;;;;;16.90;7.83;;;;;;;8.04;100.00;101525.81;1693899;85;21026;-75
2022/11/12 08:57:09;;;;;;;25.83;9.30;;;;;;;8.17;100.00;101520.71;1693690;85;21002;-74
2022/11/12 08:59:54;;;;;;;19.23;7.70;;;;;;;8.29;100.00;101514.87;1693441;85;21042;-79
2022/11/12 09:02:39;;;;;;;17.07;7.30;;;;;;;8.41;100.00;101511.70;1693616;85;21014;-76
2022/11/12 09:05:24;;;;;;;30.23;10.03;;;;;;;8.53;100.00;101501.33;1693303;85;21110;-74
2022/11/12 09:08:12;;;;;;;19.70;7.70;;;;;;;8.49;100.00;101490.91;1726198;83;21019;-79
2022/11/12 09:11:01;;;;;;;27.23;9.53;;;;;;;8.45;100.00;101482.20;1726710;83;21035;-78
2022/11/12 09:13:51;;;;;;;27.10;9.57;;;;;;;8.44;100.00;101456.21;1688411;85;21034;-80
2022/11/12 09:20:10;;;;;;;15.07;6.77;;;;;;;8.64;100.00;101416.88;1658566;85;21149;-82
2022/11/12 09:23:03;;;;;;;21.73;7.40;;;;;;;8.72;100.00;101379.34;1657176;86;21527;-79
2022/11/12 09:25:48;;;;;;;;;;;;;;;8.84;100.00;101349.66;1659797;86;21022;-78
2022/11/12 09:28:34;;;;;;;12.73;6.60;;;;;;;8.95;100.00;101322.63;1644002;86;20409;-76
2022/11/12 09:31:24;;;;;;;14.63;6.60;;;;;;;9.17;100.00;101296.52;1657464;87;21033;-78
2022/11/12 09:34:09;;;;;;;15.03;7.00;;;;;;;9.25;100.00;101250.84;1657399;86;21055;-78
2022/11/12 09:36:55;;;;;;;16.50;7.93;;;;;;;9.26;100.00;101215.64;1657554;87;21070;-79
2022/11/12 09:39:42;;;;;;;17.27;7.87;;;;;;;9.33;100.00;101186.27;1664247;85;21121;-74
2022/11/12 09:42:29;;;;;;;17.80;7.83;;;;;;;9.40;100.00;101160.91;1650879;86;21062;-73
2022/11/12 09:45:30;;;;;;;14.50;7.30;;;;;;;9.40;100.00;101136.62;1656989;87;21080;-78
2022/11/12 09:48:25;;;;;;;16.00;7.47;;;;;;;9.30;100.00;101096.11;1666448;86;21003;-79
2022/11/12 09:51:26;;;;;;;17.53;8.50;;;;;;;9.22;100.00;101059.00;1658979;87;21165;-78
2022/11/12 09:54:21;;;;;;;18.73;8.53;;;;;;;9.21;100.00;101048.36;1625971;87;21109;-81
2022/11/12 09:57:39;;;;;;;17.13;8.40;;;;;;;9.17;100.00;101034.30;1617860;87;21097;-81
2022/11/12 10:00:25;;;;;;;19.03;8.27;;;;;;;9.16;100.00;101019.08;1534371;92;21156;-73
2022/11/12 10:03:41;;;;;;;18.10;8.50;;;;;;;9.07;100.00;101010.47;1525690;92;21081;-72
2022/11/12 10:06:37;;;;;;;20.60;10.18;;;;;;;8.95;100.00;101011.06;1525278;92;21008;-81
2022/11/12 10:09:29;;;;;;;20.90;9.30;;;;;;;8.78;100.00;101000.41;1541123;93;21615;-78
2022/11/12 10:12:38;;;;;;;17.50;8.20;;;;;;;8.65;100.00;101006.05;1548573;91;21619;-80
2022/11/12 10:19:25;;;;;;;14.03;6.30;;;;;;;8.49;100.00;100982.78;1469321;94;21109;-77
2022/11/12 10:22:45;;;;;;;15.73;7.90;;;;;;;8.52;100.00;100979.82;1455126;96;21271;-80
2022/11/12 10:25:30;;;;;;;13.83;7.27;;;;;;;8.57;100.00;100982.09;1494171;95;21175;-79
2022/11/12 10:28:28;;;;;;;13.57;7.17;;;;;;;8.69;100.00;100992.67;1506031;94;21118;-74
2022/11/12 10:31:17;;;;;;;18.10;7.33;;;;;;;8.83;100.00;100990.58;1542695;92;21050;-76
2022/11/12 10:34:20;;;;;;;22.33;10.73;;;;;;;8.95;100.00;100984.59;1529920;93;21098;-80
2022/11/12 10:37:37;;;;;;;16.52;8.10;;;;;;;8.94;100.00;100963.48;1548543;91;21064;-75
2022/11/12 10:40:36;;;;;;;16.47;7.63;;;;;;;8.95;100.00;100967.91;1565931;92;21224;-77
2022/11/12 10:43:23;;;;;;;14.13;7.03;;;;;;;8.91;100.00;100962.44;1565017;91;21050;-76
2022/11/12 10:46:28;;;;;;;17.90;8.60;;;;;;;8.84;100.00;100954.55;1565725;91;21062;-77
2022/11/12 10:49:19;;;;;;;15.10;7.40;;;;;;;8.78;100.00;100946.98;1566663;91;21070;-73
2022/11/12 10:52:21;;;;;;;14.40;7.30;;;;;;;8.70;100.00;100939.09;1565094;91;21099;-78
2022/11/12 10:55:24;;;;;;;15.23;6.97;;;;;;;8.68;100.00;100937.53;1565922;91;21005;-78
2022/11/12 10:58:18;;;;;;;17.23;7.70;;;;;;;8.74;100.00;100936.46;1526729;92;21219;-78
2022/11/12 11:01:14;;;;;;;13.87;6.97;;;;;;;8.91;100.00;100935.47;1530268;93;21127;-76
2022/11/12 11:03:59;;;;;;;14.13;7.03;;;;;;;9.07;100.00;100926.33;1525817;93;21082;-78
2022/11/12 11:06:44;;;;;;;15.47;7.77;;;;;;;9.16;100.00;100912.50;1523408;93;21022;-77
2022/11/12 11:09:29;;;;;;;17.50;8.30;;;;;;;9.18;100.00;100911.02;1525816;93;21164;-79
2022/11/12 11:12:30;;;;;;;16.20;7.87;;;;;;;9.15;100.00;100905.89;1531898;93;21054;-76
2022/11/12 11:15:22;;;;;;;16.03;8.03;;;;;;;9.13;100.00;100898.77;1527615;94;21161;-77
2022/11/12 11:18:12;;;;;;;17.80;8.30;;;;;;;9.12;100.00;100894.39;1527686;94;21050;-76
2022/11/12 11:21:31;;;;;;;15.77;7.77;;;;;;;9.11;100.00;100893.18;1522374;93;21022;-77
2022/11/12 11:24:42;;;;;;;19.40;8.60;;;;;;;9.01;100.00;100890.48;1536320;93;21106;-76
2022/11/12 11:27:35;;;;;;;17.60;7.90;;;;;;;8.99;100.00;100892.95;1501509;94;21085;-76
2022/11/12 11:30:21;;;;;;;18.10;8.70;;;;;;;8.91;100.00;100886.41;1515093;92;21057;-76
2022/11/12 11:33:45;;;;;;;20.77;8.77;;;;;;;8.81;100.00;100892.78;1551367;92;21054;-74
2022/11/12 11:36:42;;;;;;;25.23;9.60;;;;;;;8.82;100.00;100885.03;1536244;93;21052;-76
2022/11/12 11:39:45;;;;;;;23.20;9.77;;;;;;;8.80;100.00;100884.32;1536481;93;21064;-81
2022/11/12 11:43:21;;;;;;;22.13;10.58;;;;;;;8.82;100.00;100890.42;1497584;95;21044;-79
2022/11/12 11:46:31;;;;;;;22.10;9.43;;;;;;;8.84;100.00;100885.77;1505623;92;21097;-81
2022/11/12 11:49:33;;;;;;;18.27;8.13;;;;;;;8.87;100.00;100886.34;1509632;95;21092;-79
2022/11/12 11:52:47;;;;;;;18.03;8.03;;;;;;;8.89;100.00;100880.31;1514162;93;21150;-80
2022/11/12 11:55:50;;;;;;;21.17;9.43;;;;;;;8.90;100.00;100881.16;1488491;96;21067;-79
2022/11/12 11:58:45;;;;;;;25.53;10.47;;;;;;;8.89;100.00;100884.86;1514351;93;21527;-76
2022/11/12 12:02:05;;;;;;;22.70;9.47;;;;;;;8.93;100.00;100870.94;1510693;94;21617;-78
2022/11/12 12:05:34;;;;;;;21.77;9.43;;;;;;;8.96;100.00;100869.82;1514990;95;21120;-82
2022/11/12 12:08:39;;;;;;;21.37;9.33;;;;;;;9.01;100.00;100863.52;1513043;95;21514;-79
2022/11/12 12:11:55;;;;;;;20.97;9.07;;;;;;;9.04;100.00;100859.66;1509764;95;21045;-76
2022/11/12 12:14:52;;;;;;;23.80;10.50;;;;;;;9.02;100.00;100858.95;1512200;94;21199;-78
2022/11/12 12:17:48;;;;;;;23.23;9.03;;;;;;;9.15;100.00;100846.53;1492312;95;21066;-79
2022/11/12 12:20:45;;;;;;;28.67;11.40;;;;;;;9.20;100.00;100847.80;1447067;97;21080;-76
2022/11/12 12:23:50;;;;;;;30.70;11.77;;;;;;;9.25;100.00;100842.83;1473509;90;21090;-79
2022/11/12 12:26:43;;;;;;;28.17;11.40;;;;;;;9.24;100.00;100848.36;1556361;88;21116;-74
2022/11/12 12:29:56;;;;;;;28.83;12.10;;;;;;;9.24;100.00;100844.31;1540055;92;21080;-77
2022/11/12 12:32:53;;;;;;;22.85;9.88;;;;;;;9.25;100.00;100846.87;1553930;91;21107;-78
2022/11/12 12:35:57;;;;;;;21.93;9.43;;;;;;;9.19;100.00;100846.11;1502633;93;21042;-77
2022/11/12 12:38:51;;;;;;;19.20;8.83;;;;;;;9.14;100.00;100847.03;1503955;94;21117;-77
2022/11/12 12:41:57;;;;;;;22.60;9.03;;;;;;;9.13;100.00;100845.31;1494912;95;21078;-76
2022/11/12 12:45:06;;;;;;;19.20;8.43;;;;;;;9.10;100.00;100846.47;1503422;94;21106;-73
2022/11/12 12:47:53;;;;;;;24.50;9.80;;;;;;;9.05;100.00;100843.84;1488991;95;21081;-77
2022/11/12 12:50:41;;;;;;;22.30;9.13;;;;;;;9.03;100.00;100851.20;1486154;96;21119;-78
2022/11/12 12:53:31;;;;;;;19.83;8.20;;;;;;;9.20;100.00;100851.00;1502528;94;21035;-80
2022/11/12 12:56:33;;;;;;;18.63;7.90;;;;;;;9.29;100.00;100844.74;1502174;92;21100;-77
2022/11/12 12:59:20;;;;;;;18.00;7.67;;;;;;;9.30;100.00;100839.72;1506568;91;21385;-78
2022/11/12 13:02:22;;;;;;;22.17;7.70;;;;;;;9.41;100.00;100844.11;1503708;91;21082;-78
2022/11/12 13:05:24;;;;;;;14.70;6.67;;;;;;;9.36;100.00;100839.12;1502901;92;21107;-79
2022/11/12 13:08:12;;;;;;;18.77;8.47;;;;;;;9.27;100.00;100838.14;1503221;95;21083;-77
2022/11/12 13:10:59;;;;;;;16.30;7.28;;;;;;;9.27;100.00;100830.04;1503205;95;21112;-80
2022/11/12 13:13:47;;;;;;;19.00;8.37;;;;;;;9.21;100.00;100831.13;1504338;92;21134;-78
2022/11/12 13:16:55;;;;;;;17.13;7.57;;;;;;;9.07;100.00;100819.77;1546895;88;21071;-80
2022/11/12 13:20:07;;;;;;;17.00;7.80;;;;;;;9.05;100.00;100819.56;1578653;89;21085;-81
2022/11/12 13:22:52;;;;;;;13.72;7.08;;;;;;;9.04;100.00;100821.39;1586656;89;21184;-79
2022/11/12 13:25:38;;;;;;;26.17;11.48;;;;;;;9.10;100.00;100816.79;1586926;89;21519;-81
2022/11/12 13:28:23;;;;;;;20.10;9.75;;;;;;;9.02;100.00;100827.94;1569576;90;21073;-80